Time,TemperatureF,DewpointF,PressureIn,WindDirection,WindDirectionDegrees,WindSpeedMPH,WindSpeedGustMPH,Humidity,HourlyPrecipIn,Conditions,Clouds,dailyrainin,SolarRadiationWatts/m^2,SoftwareType,DateUTC
2013-10-16 00:02:00,45.0,22.0,-100.00,North,357,3.0,7.0,39,0.00,,,0.00,0.000000,,2013-10-16 06:02:00,
2013-10-16 00:12:00,45.0,22.0,-100.00,North,357,3.0,7.0,39,0.00,,,0.00,0.000000,,2013-10-16 06:12:00,
2013-10-16 00:30:00,39.0,22.0,-100.00,NW,313,3.0,6.0,51,0.00,,,0.00,0.000000,,2013-10-16 06:30:00,
2013-10-16 00:52:00,39.0,22.0,-100.00,NW,313,3.0,6.0,51,0.00,,,0.00,0.000000,,2013-10-16 06:52:00,
2013-10-16 01:02:00,39.0,22.0,-100.00,NW,313,3.0,6.0,51,0.00,,,0.00,0.000000,,2013-10-16 07:02:00,
2013-10-16 01:11:00,39.0,22.0,-100.00,NW,313,3.0,6.0,51,0.00,,,0.00,0.000000,,2013-10-16 07:11:00,
2013-10-16 01:21:00,39.0,22.0,-100.00,NW,313,3.0,6.0,51,0.00,,,0.00,0.000000,,2013-10-16 07:21:00,
2013-10-16 01:30:00,44.0,23.0,-100.00,NW,308,3.0,5.0,43,0.00,,,0.00,0.000000,,2013-10-16 07:30:00,
2013-10-16 01:53:00,44.0,23.0,-100.00,NW,308,3.0,5.0,43,0.00,,,0.00,0.000000,,2013-10-16 07:53:00,
2013-10-16 02:02:00,44.0,23.0,-100.00,NW,308,3.0,5.0,43,0.00,,,0.00,0.000000,,2013-10-16 08:02:00,
2013-10-16 02:21:00,44.0,23.0,-100.00,NW,308,3.0,5.0,43,0.00,,,0.00,0.000000,,2013-10-16 08:21:00,
2013-10-16 02:30:00,37.0,20.0,-100.00,WNW,299,4.0,6.0,50,0.00,,,0.00,0.000000,,2013-10-16 08:30:00,
2013-10-16 02:52:00,37.0,20.0,-100.00,WNW,299,4.0,6.0,50,0.00,,,0.00,0.000000,,2013-10-16 08:52:00,
2013-10-16 03:02:00,37.0,20.0,-100.00,WNW,299,4.0,6.0,50,0.00,,,0.00,0.000000,,2013-10-16 09:02:00,
2013-10-16 03:11:00,37.0,20.0,-100.00,WNW,299,4.0,6.0,50,0.00,,,0.00,0.000000,,2013-10-16 09:11:00,
2013-10-16 03:22:00,37.0,20.0,-100.00,WNW,299,4.0,6.0,50,0.00,,,0.00,0.000000,,2013-10-16 09:22:00,
2013-10-16 03:30:00,33.0,21.0,-100.00,ENE,71,2.0,7.0,62,0.00,,,0.00,0.000000,,2013-10-16 09:30:00,
2013-10-16 03:53:00,33.0,21.0,-100.00,ENE,71,2.0,7.0,62,0.00,,,0.00,0.000000,,2013-10-16 09:53:00,
2013-10-16 04:03:00,33.0,21.0,-100.00,ENE,71,2.0,7.0,62,0.00,,,0.00,0.000000,,2013-10-16 10:03:00,
2013-10-16 04:12:00,33.0,21.0,-100.00,ENE,71,2.0,7.0,62,0.00,,,0.00,0.000000,,2013-10-16 10:12:00,
2013-10-16 04:22:00,33.0,21.0,-100.00,ENE,71,2.0,7.0,62,0.00,,,0.00,0.000000,,2013-10-16 10:22:00,
2013-10-16 04:30:00,29.0,23.0,-100.00,WNW,285,2.0,4.0,77,0.00,,,0.00,0.000000,,2013-10-16 10:30:00,
2013-10-16 04:53:00,29.0,23.0,-100.00,WNW,285,2.0,4.0,77,0.00,,,0.00,0.000000,,2013-10-16 10:53:00,
2013-10-16 05:03:00,29.0,23.0,-100.00,WNW,285,2.0,4.0,77,0.00,,,0.00,0.000000,,2013-10-16 11:03:00,
2013-10-16 05:12:00,29.0,23.0,-100.00,WNW,285,2.0,4.0,77,0.00,,,0.00,0.000000,,2013-10-16 11:12:00,
2013-10-16 05:22:00,29.0,23.0,-100.00,WNW,285,2.0,4.0,77,0.00,,,0.00,0.000000,,2013-10-16 11:22:00,
2013-10-16 05:30:00,28.0,22.0,-100.00,West,278,2.0,4.0,79,0.00,,,0.00,0.000000,,2013-10-16 11:30:00,
2013-10-16 05:52:00,28.0,22.0,-100.00,West,278,2.0,4.0,79,0.00,,,0.00,0.000000,,2013-10-16 11:52:00,
2013-10-16 06:02:00,28.0,22.0,-100.00,West,278,2.0,4.0,79,0.00,,,0.00,0.000000,,2013-10-16 12:02:00,
2013-10-16 06:12:00,28.0,22.0,-100.00,West,278,2.0,4.0,79,0.00,,,0.00,0.000000,,2013-10-16 12:12:00,
2013-10-16 06:21:00,28.0,22.0,-100.00,West,278,2.0,4.0,79,0.00,,,0.00,0.000000,,2013-10-16 12:21:00,
2013-10-16 06:30:00,29.0,24.0,-100.00,West,271,2.0,4.0,80,0.00,,,-99.99,0.000000,,2013-10-16 12:30:00,
2013-10-16 06:52:00,29.0,24.0,-100.00,West,271,2.0,4.0,80,0.00,,,-99.99,0.000000,,2013-10-16 12:52:00,
2013-10-16 07:01:00,29.0,24.0,-100.00,West,271,2.0,4.0,80,0.00,,,-99.99,0.000000,,2013-10-16 13:01:00,
2013-10-16 07:11:00,29.0,24.0,-100.00,West,271,2.0,4.0,80,0.00,,,-99.99,0.000000,,2013-10-16 13:11:00,
2013-10-16 07:22:00,29.0,24.0,-100.00,West,271,2.0,4.0,80,0.00,,,-99.99,0.000000,,2013-10-16 13:22:00,
2013-10-16 07:30:00,30.0,24.0,-100.00,West,278,4.0,5.0,79,0.00,,,0.00,0.000000,,2013-10-16 13:30:00,
2013-10-16 07:52:00,30.0,24.0,-100.00,West,278,4.0,5.0,79,0.00,,,0.00,0.000000,,2013-10-16 13:52:00,
2013-10-16 08:01:00,30.0,24.0,-100.00,West,278,4.0,5.0,79,0.00,,,0.00,0.000000,,2013-10-16 14:01:00,
2013-10-16 08:11:00,30.0,24.0,-100.00,West,278,4.0,5.0,79,0.00,,,0.00,0.000000,,2013-10-16 14:11:00,
2013-10-16 08:22:00,30.0,24.0,-100.00,West,278,4.0,5.0,79,0.00,,,0.00,0.000000,,2013-10-16 14:22:00,
2013-10-16 08:30:00,36.0,30.0,-100.00,WNW,282,5.0,7.0,79,0.00,,,0.00,10.000000,,2013-10-16 14:30:00,
2013-10-16 08:52:00,36.0,30.0,-100.00,WNW,282,5.0,7.0,79,0.00,,,0.00,10.000000,,2013-10-16 14:52:00,
2013-10-16 09:02:00,36.0,30.0,-100.00,WNW,282,5.0,7.0,79,0.00,,,0.00,10.000000,,2013-10-16 15:02:00,
2013-10-16 09:11:00,36.0,30.0,-100.00,WNW,282,5.0,7.0,79,0.00,,,0.00,10.000000,,2013-10-16 15:11:00,
2013-10-16 09:22:00,36.0,30.0,-100.00,WNW,282,5.0,7.0,79,0.00,,,0.00,10.000000,,2013-10-16 15:22:00,
2013-10-16 09:30:00,38.0,29.0,-100.00,WSW,256,2.0,6.0,71,0.00,,,-99.99,49.000000,,2013-10-16 15:30:00,
2013-10-16 09:53:00,38.0,29.0,-100.00,WSW,256,2.0,6.0,71,0.00,,,-99.99,49.000000,,2013-10-16 15:53:00,
2013-10-16 10:03:00,38.0,29.0,-100.00,WSW,256,2.0,6.0,71,0.00,,,-99.99,49.000000,,2013-10-16 16:03:00,
2013-10-16 10:13:00,38.0,29.0,-100.00,WSW,256,2.0,6.0,71,0.00,,,-99.99,49.000000,,2013-10-16 16:13:00,
2013-10-16 10:23:00,38.0,29.0,-100.00,WSW,256,2.0,6.0,71,0.00,,,-99.99,49.000000,,2013-10-16 16:23:00,
2013-10-16 10:30:00,45.0,27.0,-100.00,WNW,289,4.0,9.0,49,0.00,,,0.00,80.000000,,2013-10-16 16:30:00,
2013-10-16 10:53:00,45.0,27.0,-100.00,WNW,289,4.0,9.0,49,0.00,,,0.00,80.000000,,2013-10-16 16:53:00,
2013-10-16 11:02:00,45.0,27.0,-100.00,WNW,289,4.0,9.0,49,0.00,,,0.00,80.000000,,2013-10-16 17:02:00,
2013-10-16 11:12:00,45.0,27.0,-100.00,WNW,289,4.0,9.0,49,0.00,,,0.00,80.000000,,2013-10-16 17:12:00,
2013-10-16 11:22:00,45.0,27.0,-100.00,WNW,289,4.0,9.0,49,0.00,,,0.00,80.000000,,2013-10-16 17:22:00,
2013-10-16 11:30:00,42.0,31.0,-100.00,WNW,291,5.0,15.0,66,0.00,,,0.00,62.000000,,2013-10-16 17:30:00,
2013-10-16 11:52:00,42.0,31.0,-100.00,WNW,291,5.0,15.0,66,0.00,,,0.00,62.000000,,2013-10-16 17:52:00,
2013-10-16 12:02:00,42.0,31.0,-100.00,WNW,291,5.0,15.0,66,0.00,,,0.00,62.000000,,2013-10-16 18:02:00,
2013-10-16 12:11:00,42.0,31.0,-100.00,WNW,291,5.0,15.0,66,0.00,,,0.00,62.000000,,2013-10-16 18:11:00,
2013-10-16 12:21:00,42.0,31.0,-100.00,WNW,291,5.0,15.0,66,0.00,,,0.00,62.000000,,2013-10-16 18:21:00,
2013-10-16 12:30:00,40.0,36.0,-100.00,WSW,248,1.0,9.0,84,0.00,,,0.00,67.000000,,2013-10-16 18:30:00,
2013-10-16 12:52:00,40.0,36.0,-100.00,WSW,248,1.0,9.0,84,0.00,,,0.00,67.000000,,2013-10-16 18:52:00,
2013-10-16 13:02:00,40.0,36.0,-100.00,WSW,248,1.0,9.0,84,0.00,,,0.00,67.000000,,2013-10-16 19:02:00,
2013-10-16 13:11:00,40.0,36.0,-100.00,WSW,248,1.0,9.0,84,0.00,,,0.00,67.000000,,2013-10-16 19:11:00,
2013-10-16 13:21:00,40.0,36.0,-100.00,WSW,248,1.0,9.0,84,0.00,,,0.00,67.000000,,2013-10-16 19:21:00,
2013-10-16 13:30:00,40.0,35.0,-100.00,SW,223,4.0,6.0,83,0.00,,,0.00,108.000000,,2013-10-16 19:30:00,
2013-10-16 13:52:00,40.0,35.0,-100.00,SW,223,4.0,6.0,83,0.00,,,0.00,108.000000,,2013-10-16 19:52:00,
2013-10-16 14:02:00,40.0,35.0,-100.00,SW,223,4.0,6.0,83,0.00,,,0.00,108.000000,,2013-10-16 20:02:00,
2013-10-16 14:12:00,40.0,35.0,-100.00,SW,223,4.0,6.0,83,0.00,,,0.00,108.000000,,2013-10-16 20:12:00,
2013-10-16 14:22:00,40.0,35.0,-100.00,SW,223,4.0,6.0,83,0.00,,,0.00,108.000000,,2013-10-16 20:22:00,
2013-10-16 14:30:00,38.0,35.0,-100.00,WNW,298,4.0,7.0,88,0.00,,,0.00,87.000000,,2013-10-16 20:30:00,
2013-10-16 14:52:00,38.0,35.0,-100.00,WNW,298,4.0,7.0,88,0.00,,,0.00,87.000000,,2013-10-16 20:52:00,
2013-10-16 15:02:00,38.0,35.0,-100.00,WNW,298,4.0,7.0,88,0.00,,,0.00,87.000000,,2013-10-16 21:02:00,
2013-10-16 15:11:00,38.0,35.0,-100.00,WNW,298,4.0,7.0,88,0.00,,,0.00,87.000000,,2013-10-16 21:11:00,
2013-10-16 15:23:00,38.0,35.0,-100.00,WNW,298,4.0,7.0,88,0.00,,,0.00,87.000000,,2013-10-16 21:23:00,
2013-10-16 15:30:00,38.0,35.0,-100.00,WSW,256,4.0,8.0,89,0.00,,,0.00,127.000000,,2013-10-16 21:30:00,
2013-10-16 15:54:00,38.0,35.0,-100.00,WSW,256,4.0,8.0,89,0.00,,,0.00,127.000000,,2013-10-16 21:54:00,
2013-10-16 16:04:00,38.0,35.0,-100.00,WSW,256,4.0,8.0,89,0.00,,,0.00,127.000000,,2013-10-16 22:04:00,
2013-10-16 16:14:00,38.0,35.0,-100.00,WSW,256,4.0,8.0,89,0.00,,,0.00,127.000000,,2013-10-16 22:14:00,
2013-10-16 16:23:00,38.0,35.0,-100.00,WSW,256,4.0,8.0,89,0.00,,,0.00,127.000000,,2013-10-16 22:23:00,
2013-10-16 16:30:00,39.0,36.0,-100.00,SE,139,1.0,5.0,89,0.00,,,0.00,98.000000,,2013-10-16 22:30:00,
2013-10-16 16:54:00,39.0,36.0,-100.00,SE,139,1.0,5.0,89,0.00,,,0.00,98.000000,,2013-10-16 22:54:00,
2013-10-16 17:02:00,39.0,36.0,-100.00,SE,139,1.0,5.0,89,0.00,,,0.00,98.000000,,2013-10-16 23:02:00,
2013-10-16 17:12:00,39.0,36.0,-100.00,SE,139,1.0,5.0,89,0.00,,,0.00,98.000000,,2013-10-16 23:12:00,
2013-10-16 17:22:00,39.0,36.0,-100.00,SE,139,1.0,5.0,89,0.00,,,0.00,98.000000,,2013-10-16 23:22:00,
2013-10-16 17:30:00,39.0,36.0,-100.00,ENE,76,2.0,4.0,90,0.00,,,0.00,45.000000,,2013-10-16 23:30:00,
2013-10-16 17:53:00,39.0,36.0,-100.00,ENE,76,2.0,4.0,90,0.00,,,0.00,45.000000,,2013-10-16 23:53:00,
2013-10-16 18:02:00,39.0,36.0,-100.00,ENE,76,2.0,4.0,90,0.00,,,0.00,45.000000,,2013-10-17 00:02:00,
2013-10-16 18:11:00,39.0,36.0,-100.00,ENE,76,2.0,4.0,90,0.00,,,0.00,45.000000,,2013-10-17 00:11:00,
2013-10-16 18:22:00,39.0,36.0,-100.00,ENE,76,2.0,4.0,90,0.00,,,0.00,45.000000,,2013-10-17 00:22:00,
2013-10-16 18:30:00,38.0,36.0,-100.00,East,82,3.0,5.0,91,0.00,,,-99.99,14.000000,,2013-10-17 00:30:00,
2013-10-16 19:12:00,38.0,36.0,-100.00,East,82,3.0,5.0,91,0.00,,,-99.99,14.000000,,2013-10-17 01:12:00,
2013-10-16 19:22:00,38.0,36.0,-100.00,East,82,3.0,5.0,91,0.00,,,-99.99,14.000000,,2013-10-17 01:22:00,
2013-10-16 19:30:00,37.0,35.0,-100.00,East,79,4.0,6.0,91,0.00,,,0.00,0.000000,,2013-10-17 01:30:00,
2013-10-16 19:52:00,37.0,35.0,-100.00,East,79,4.0,6.0,91,0.00,,,0.00,0.000000,,2013-10-17 01:52:00,
2013-10-16 20:03:00,37.0,35.0,-100.00,East,79,4.0,6.0,91,0.00,,,0.00,0.000000,,2013-10-17 02:03:00,
2013-10-16 20:12:00,37.0,35.0,-100.00,East,79,4.0,6.0,91,0.00,,,0.00,0.000000,,2013-10-17 02:12:00,
2013-10-16 20:21:00,37.0,35.0,-100.00,East,79,4.0,6.0,91,0.00,,,0.00,0.000000,,2013-10-17 02:21:00,
2013-10-16 20:30:00,37.0,35.0,-100.00,NE,56,3.0,5.0,91,0.00,,,0.00,0.000000,,2013-10-17 02:30:00,
2013-10-16 21:12:00,37.0,35.0,-100.00,NE,56,3.0,5.0,91,0.00,,,0.00,0.000000,,2013-10-17 03:12:00,
2013-10-16 21:22:00,37.0,35.0,-100.00,NE,56,3.0,5.0,91,0.00,,,0.00,0.000000,,2013-10-17 03:22:00,
2013-10-16 21:30:00,38.0,36.0,-100.00,SE,145,1.0,3.0,92,0.00,,,0.00,0.000000,,2013-10-17 03:30:00,
2013-10-16 21:54:00,38.0,36.0,-100.00,SE,145,1.0,3.0,92,0.00,,,0.00,0.000000,,2013-10-17 03:54:00,
2013-10-16 22:04:00,38.0,36.0,-100.00,SE,145,1.0,3.0,92,0.00,,,0.00,0.000000,,2013-10-17 04:04:00,
2013-10-16 22:14:00,38.0,36.0,-100.00,SE,145,1.0,3.0,92,0.00,,,0.00,0.000000,,2013-10-17 04:14:00,
2013-10-16 22:24:00,38.0,36.0,-100.00,SE,145,1.0,3.0,92,0.00,,,0.00,0.000000,,2013-10-17 04:24:00,
2013-10-16 22:30:00,37.0,35.0,-100.00,WNW,290,2.0,3.0,94,0.00,,,0.00,0.000000,,2013-10-17 04:30:00,
2013-10-16 22:54:00,37.0,35.0,-100.00,WNW,290,2.0,3.0,94,0.00,,,0.00,0.000000,,2013-10-17 04:54:00,
2013-10-16 23:04:00,37.0,35.0,-100.00,WNW,290,2.0,3.0,94,0.00,,,0.00,0.000000,,2013-10-17 05:04:00,
2013-10-16 23:13:00,37.0,35.0,-100.00,WNW,290,2.0,3.0,94,0.00,,,0.00,0.000000,,2013-10-17 05:13:00,
2013-10-16 23:23:00,37.0,35.0,-100.00,WNW,290,2.0,3.0,94,0.00,,,0.00,0.000000,,2013-10-17 05:23:00,
2013-10-16 23:30:00,37.0,35.0,-100.00,NE,41,2.0,4.0,93,0.00,,,-99.99,0.000000,,2013-10-17 05:30:00,
2013-10-16 23:52:00,37.0,35.0,-100.00,NE,41,2.0,4.0,93,0.00,,,-99.99,0.000000,,2013-10-17 05:52:00,